Time;durP1;ratioP1;P1;durP2;ratioP2;P2;SDS_P1;SDS_P2;PMS_P1;PMS_P2;Temp;Humidity;BMP_temperature;BMP_pressure;BME280_temperature;BME280_humidity;BME280_pressure;Samples;Min_cycle;Max_cycle;Signal;HPM_P1;HPM_P2
2023/06/13 00:01:15;;;;;;;1.00;0.40;;;;;;;12.35;54.60;102406.16;5038074;28;20045;-78
2023/06/13 00:03:42;;;;;;;2.70;0.70;;;;;;;12.32;54.90;102400.00;5036612;28;20064;-78
2023/06/13 00:06:09;;;;;;;1.02;0.50;;;;;;;12.21;54.61;102389.53;5040204;28;20060;-79
2023/06/13 00:08:35;;;;;;;0.93;0.52;;;;;;;12.17;54.62;102390.41;5038678;28;20149;-76
2023/06/13 00:11:02;;;;;;;1.10;0.70;;;;;;;12.19;55.11;102396.53;5038441;28;20512;-76
2023/06/13 00:13:30;;;;;;;1.55;0.50;;;;;;;12.05;55.05;102379.91;5044517;28;20465;-77
2023/06/13 00:15:58;;;;;;;2.97;0.40;;;;;;;12.12;54.92;102394.75;5040059;28;20122;-79
2023/06/13 00:18:30;;;;;;;1.10;0.50;;;;;;;12.09;55.14;102394.75;5038702;28;20046;-76
2023/06/13 00:20:58;;;;;;;1.08;0.40;;;;;;;12.02;55.18;102393.88;5040174;28;20052;-76
2023/06/13 00:23:26;;;;;;;0.50;0.45;;;;;;;12.01;55.25;102388.63;5037006;28;20135;-77
2023/06/13 00:25:54;;;;;;;1.50;0.70;;;;;;;11.96;55.40;102390.41;5038352;28;20429;-75
2023/06/13 00:28:21;;;;;;;1.23;0.50;;;;;;;11.89;55.34;102390.34;5038507;28;20045;-77
2023/06/13 00:30:48;;;;;;;0.70;0.60;;;;;;;11.88;55.59;102386.00;5039139;28;20048;-76
2023/06/13 00:33:17;;;;;;;1.25;0.65;;;;;;;11.85;55.55;102391.22;5030915;28;20045;-78
2023/06/13 00:35:44;;;;;;;1.33;0.52;;;;;;;11.79;55.85;102388.56;5038485;28;20049;-78
2023/06/13 00:38:12;;;;;;;3.03;0.50;;;;;;;11.78;55.87;102392.06;5038532;28;20048;-78
2023/06/13 00:40:39;;;;;;;1.27;0.50;;;;;;;11.69;55.95;102378.94;5034705;28;20045;-77
2023/06/13 00:43:07;;;;;;;1.02;0.50;;;;;;;11.68;55.50;102382.44;5037771;28;20478;-76
2023/06/13 00:45:35;;;;;;;2.25;0.60;;;;;;;11.68;55.61;102387.66;5031131;28;20052;-78
2023/06/13 00:48:03;;;;;;;1.77;0.52;;;;;;;11.61;55.57;102384.16;5033550;28;20052;-78
2023/06/13 00:50:33;;;;;;;2.80;0.77;;;;;;;11.57;56.41;102387.63;5042222;28;20048;-78
2023/06/13 00:53:04;;;;;;;1.33;0.50;;;;;;;11.55;56.31;102389.34;5038672;28;20049;-78
2023/06/13 00:55:31;;;;;;;0.65;0.60;;;;;;;11.52;56.21;102388.47;5041621;28;20041;-78
2023/06/13 00:58:06;;;;;;;1.05;0.52;;;;;;;11.40;56.21;102374.47;5040955;28;20045;-78
2023/06/13 01:00:33;;;;;;;1.13;0.73;;;;;;;11.45;56.20;102388.47;5038447;28;20060;-78
2023/06/13 01:03:06;;;;;;;3.47;0.43;;;;;;;11.39;56.41;102385.81;5037509;28;20053;-76
2023/06/13 01:05:35;;;;;;;0.95;0.68;;;;;;;11.39;56.26;102387.56;5035747;28;20072;-78
2023/06/13 01:08:07;;;;;;;2.17;0.40;;;;;;;11.36;56.68;102380.59;5039683;28;20049;-78
2023/06/13 01:10:36;;;;;;;2.70;0.65;;;;;;;11.32;56.40;102384.03;5040578;28;20139;-78
2023/06/13 01:13:08;;;;;;;2.00;0.65;;;;;;;11.29;57.10;102381.41;5035157;28;20064;-78
2023/06/13 01:15:43;;;;;;;2.05;0.50;;;;;;;11.24;57.29;102380.50;5036848;28;20136;-78
2023/06/13 01:18:14;;;;;;;0.80;0.50;;;;;;;11.21;56.90;102384.03;5021540;28;20506;-78
2023/06/13 01:20:45;;;;;;;4.75;0.60;;;;;;;11.01;56.89;102352.53;5039473;28;20041;-78
2023/06/13 01:23:25;;;;;;;1.98;0.55;;;;;;;11.16;57.11;102379.63;5038258;28;20144;-78
2023/06/13 01:26:02;;;;;;;3.63;0.60;;;;;;;11.00;56.95;102356.00;5040716;28;20140;-78
2023/06/13 01:28:33;;;;;;;2.60;0.40;;;;;;;11.09;57.11;102378.72;5039156;28;20072;-78
2023/06/13 01:31:01;;;;;;;0.70;0.52;;;;;;;11.07;57.48;102380.47;5040518;28;20470;-78
2023/06/13 01:33:30;;;;;;;1.63;0.60;;;;;;;11.02;57.18;102375.19;5038876;28;20041;-78
2023/06/13 01:35:57;;;;;;;5.32;0.60;;;;;;;10.99;57.31;102375.19;5035694;28;20085;-78
2023/06/13 01:38:24;;;;;;;1.05;0.57;;;;;;;10.78;57.22;102347.16;5037784;28;20041;-78
2023/06/13 01:40:51;;;;;;;2.83;0.40;;;;;;;10.93;57.49;102369.94;5034034;28;20591;-79
2023/06/13 01:43:17;;;;;;;3.05;0.70;;;;;;;10.91;57.71;102370.78;5040550;28;20045;-78
2023/06/13 01:45:46;;;;;;;2.25;0.60;;;;;;;10.88;58.22;102376.84;5040649;28;20045;-78
2023/06/13 01:48:23;;;;;;;0.90;0.73;;;;;;;10.88;58.02;102376.84;5038563;28;20128;-78
2023/06/13 01:50:58;;;;;;;2.45;0.60;;;;;;;10.84;57.99;102377.69;5039003;28;20075;-78
2023/06/13 01:53:32;;;;;;;6.47;0.50;;;;;;;10.83;57.95;102375.09;5038313;28;20045;-78
2023/06/13 01:56:01;;;;;;;1.83;0.70;;;;;;;10.80;58.53;102374.19;5034821;28;20449;-78
2023/06/13 01:58:34;;;;;;;1.10;0.93;;;;;;;10.79;58.42;102369.84;5039566;28;20480;-78
2023/06/13 02:01:05;;;;;;;3.97;0.60;;;;;;;10.79;58.58;102368.97;5037112;28;20051;-78
2023/06/13 02:03:32;;;;;;;0.85;0.60;;;;;;;10.73;58.49;102366.28;5038890;28;20045;-78
2023/06/13 02:06:00;;;;;;;3.83;0.60;;;;;;;10.68;58.70;102355.81;5036392;28;20532;-78
2023/06/13 02:08:28;;;;;;;1.98;0.60;;;;;;;10.73;58.69;102363.69;5034728;28;20045;-78
2023/06/13 02:10:55;;;;;;;1.00;0.60;;;;;;;10.64;58.68;102347.94;5037687;28;20049;-78
2023/06/13 02:13:21;;;;;;;2.92;0.75;;;;;;;10.73;58.95;102371.53;5039537;28;20120;-79
2023/06/13 02:15:49;;;;;;;0.60;0.50;;;;;;;10.72;59.16;102380.22;5037186;28;20066;-79
2023/06/13 02:18:17;;;;;;;1.88;0.90;;;;;;;10.69;59.07;102372.38;5039290;28;20045;-79
2023/06/13 02:20:44;;;;;;;1.67;0.73;;;;;;;10.71;59.44;102383.72;5040929;28;20843;-79
2023/06/13 02:23:12;;;;;;;4.35;0.80;;;;;;;10.71;59.51;102386.34;5040710;28;20053;-77
2023/06/13 02:25:39;;;;;;;2.35;0.70;;;;;;;10.70;59.31;102382.84;5035770;28;20059;-77
2023/06/13 02:28:06;;;;;;;1.92;0.68;;;;;;;10.63;59.47;102374.94;5036517;28;20049;-77
2023/06/13 02:30:33;;;;;;;3.17;0.65;;;;;;;10.69;59.62;102385.44;5035247;28;20048;-78
2023/06/13 02:33:01;;;;;;;4.25;0.88;;;;;;;10.69;60.03;102386.31;5040147;28;20049;-77
2023/06/13 02:35:29;;;;;;;0.88;0.70;;;;;;;10.67;59.89;102387.16;5034539;28;20041;-77
2023/06/13 02:37:56;;;;;;;2.38;1.02;;;;;;;10.68;60.21;102392.41;5036562;28;20080;-77
2023/06/13 02:40:23;;;;;;;0.77;0.73;;;;;;;10.69;60.44;102383.69;5039975;28;20048;-77
2023/06/13 02:42:52;;;;;;;1.85;0.90;;;;;;;10.69;60.41;102388.94;5035939;28;20064;-75
2023/06/13 02:45:19;;;;;;;0.95;0.60;;;;;;;10.67;60.35;102387.16;5036873;28;20050;-75
2023/06/13 02:47:46;;;;;;;1.65;1.13;;;;;;;10.70;60.29;102387.19;5039401;28;20327;-80
2023/06/13 02:50:13;;;;;;;1.15;0.63;;;;;;;10.70;60.67;102387.19;5035360;28;20056;-80
2023/06/13 02:52:41;;;;;;;3.55;0.70;;;;;;;10.63;61.10;102374.94;5038123;28;20044;-77
2023/06/13 02:55:08;;;;;;;1.20;0.70;;;;;;;10.70;61.03;102385.47;5038059;28;20049;-78
2023/06/13 02:57:37;;;;;;;0.93;0.63;;;;;;;10.67;61.11;102384.56;5037550;28;20370;-78
2023/06/13 03:00:08;;;;;;;0.82;0.70;;;;;;;10.74;60.95;102383.75;5035295;28;20481;-77
2023/06/13 03:02:36;;;;;;;1.65;0.75;;;;;;;10.74;61.36;102383.75;5038590;28;20051;-80
2023/06/13 03:05:04;;;;;;;2.97;0.75;;;;;;;10.76;61.49;102382.03;5040086;28;20080;-79
2023/06/13 03:07:32;;;;;;;1.38;0.80;;;;;;;10.74;61.34;102373.28;5033471;28;20061;-80
2023/06/13 03:10:01;;;;;;;1.33;1.23;;;;;;;10.79;61.40;102389.88;5038219;28;20076;-80
2023/06/13 03:12:28;;;;;;;1.52;0.70;;;;;;;10.72;61.91;102385.47;5030856;28;20168;-80
2023/06/13 03:14:55;;;;;;;1.02;0.73;;;;;;;10.82;61.65;102387.28;5034729;28;20409;-81
2023/06/13 03:17:22;;;;;;;0.73;0.65;;;;;;;10.84;62.11;102389.88;5036250;28;20041;-80
2023/06/13 03:19:49;;;;;;;2.72;0.90;;;;;;;10.88;62.18;102396.91;5038474;28;20056;-80
2023/06/13 03:22:17;;;;;;;1.50;0.82;;;;;;;10.89;61.92;102391.66;5037139;28;20166;-80
2023/06/13 03:24:46;;;;;;;1.77;0.65;;;;;;;10.90;62.35;102387.31;5038137;28;20128;-80
2023/06/13 03:27:14;;;;;;;4.60;0.98;;;;;;;10.95;62.63;102389.09;5035187;28;20048;-80
2023/06/13 03:29:42;;;;;;;2.63;0.77;;;;;;;10.98;62.46;102391.72;5038417;28;20062;-80
2023/06/13 03:32:09;;;;;;;1.10;0.80;;;;;;;11.03;62.65;102391.75;5034281;28;20076;-79
2023/06/13 03:34:38;;;;;;;1.90;0.80;;;;;;;10.99;63.04;102375.19;5040261;28;20045;-80
2023/06/13 03:37:06;;;;;;;2.42;1.08;;;;;;;11.12;63.33;102380.47;5039747;28;20461;-80
2023/06/13 03:39:33;;;;;;;1.35;0.80;;;;;;;11.17;63.67;102381.38;5045185;28;20056;-80
2023/06/13 03:42:00;;;;;;;1.48;0.90;;;;;;;11.19;63.81;102375.28;5042732;28;20059;-80
2023/06/13 03:44:29;;;;;;;1.58;0.80;;;;;;;11.22;64.04;102371.81;5044065;28;20053;-81
2023/06/13 03:46:56;;;;;;;1.08;0.98;;;;;;;11.34;64.39;102382.31;5043968;28;20045;-81
2023/06/13 03:49:23;;;;;;;1.10;0.88;;;;;;;11.42;64.31;102379.75;5041804;28;20085;-80
2023/06/13 03:51:50;;;;;;;1.75;1.10;;;;;;;11.41;64.56;102357.94;5045544;28;20052;-81
2023/06/13 03:54:17;;;;;;;2.30;0.75;;;;;;;11.60;64.78;102371.06;5040748;28;20148;-80
2023/06/13 03:56:43;;;;;;;1.13;0.80;;;;;;;11.68;64.83;102372.84;5044015;28;20037;-80
2023/06/13 03:59:11;;;;;;;1.80;0.77;;;;;;;11.71;64.78;102356.25;5045341;28;20060;-80
2023/06/13 04:01:41;;;;;;;1.85;1.00;;;;;;;11.88;64.55;102370.28;5038799;28;20151;-80
2023/06/13 04:04:08;;;;;;;1.30;0.60;;;;;;;11.99;64.42;102372.94;5037237;28;20136;-80
2023/06/13 04:06:37;;;;;;;2.50;0.90;;;;;;;12.09;64.25;102379.91;5042532;28;20088;-80
2023/06/13 04:09:05;;;;;;;1.13;0.73;;;;;;;12.20;64.08;102368.56;5038607;28;20674;-81
2023/06/13 04:11:33;;;;;;;2.28;0.70;;;;;;;12.27;64.19;102347.63;5039975;28;20045;-80
2023/06/13 04:14:00;;;;;;;2.05;0.88;;;;;;;12.40;63.70;102352.84;5042819;28;20075;-80
2023/06/13 04:16:27;;;;;;;2.45;0.73;;;;;;;12.53;63.55;102359.84;5045263;28;20057;-80
2023/06/13 04:18:56;;;;;;;0.95;0.82;;;;;;;12.65;63.72;102353.69;5045654;28;20045;-80
2023/06/13 04:21:24;;;;;;;2.25;0.75;;;;;;;12.77;63.52;102349.28;5045531;28;20052;-80
2023/06/13 04:23:51;;;;;;;3.35;0.68;;;;;;;12.83;63.32;102338.81;5044208;28;20084;-80
2023/06/13 04:26:19;;;;;;;1.75;0.70;;;;;;;13.03;62.76;102351.84;5042658;28;21014;-81
2023/06/13 04:28:47;;;;;;;3.25;0.50;;;;;;;13.14;63.02;102336.06;5042340;28;20049;-81
2023/06/13 04:31:14;;;;;;;5.72;0.60;;;;;;;13.33;62.57;102346.50;5047449;28;20614;-81
2023/06/13 04:33:44;;;;;;;2.70;0.70;;;;;;;13.48;62.41;102342.03;5042494;28;20041;-80
2023/06/13 04:36:13;;;;;;;1.10;0.60;;;;;;;13.63;62.28;102338.47;5042009;28;20041;-81
2023/06/13 04:38:40;;;;;;;1.55;0.50;;;;;;;13.80;61.65;102340.09;5045855;28;20540;-81
2023/06/13 04:41:10;;;;;;;4.20;0.70;;;;;;;13.95;61.64;102340.88;5044225;28;20045;-81
2023/06/13 04:43:36;;;;;;;2.22;0.50;;;;;;;14.05;61.29;102323.28;5043482;28;20045;-81
2023/06/13 04:46:03;;;;;;;2.40;0.70;;;;;;;14.05;60.85;102291.75;5047723;28;20040;-81
2023/06/13 04:48:30;;;;;;;1.88;0.60;;;;;;;14.50;60.16;102336.03;5043268;28;20052;-81
2023/06/13 04:50:58;;;;;;;1.15;0.60;;;;;;;14.67;59.73;102331.50;5034691;28;20045;-83
2023/06/13 04:53:26;;;;;;;1.00;0.47;;;;;;;14.75;58.90;102305.13;5042432;28;20045;-83
2023/06/13 04:55:54;;;;;;;0.70;0.40;;;;;;;15.05;58.40;102323.19;5040758;28;20058;-83
2023/06/13 04:58:23;;;;;;;0.73;0.65;;;;;;;15.32;58.05;102323.69;5043016;28;20457;-83
2023/06/13 05:00:51;;;;;;;2.45;0.45;;;;;;;15.51;57.10;102324.28;5035632;28;20187;-82
2023/06/13 05:03:19;;;;;;;1.73;0.60;;;;;;;15.58;56.70;102302.25;5040246;28;20079;-83
2023/06/13 05:05:46;;;;;;;3.50;0.60;;;;;;;15.82;56.18;102305.44;5041266;28;20536;-83
2023/06/13 05:08:19;;;;;;;2.80;0.50;;;;;;;16.11;55.71;102312.88;5038481;28;20087;-82
2023/06/13 05:10:47;;;;;;;1.02;0.40;;;;;;;16.32;54.42;102320.41;5039916;28;20056;-83
2023/06/13 05:13:15;;;;;;;0.47;0.30;;;;;;;16.53;53.82;102315.63;5037195;28;20053;-82
2023/06/13 05:15:45;;;;;;;3.50;0.40;;;;;;;16.72;52.93;102311.75;5040923;28;20517;-82
2023/06/13 05:18:13;;;;;;;1.25;0.43;;;;;;;16.95;52.65;102313.94;5036058;28;20525;-82
2023/06/13 05:20:43;;;;;;;3.42;0.40;;;;;;;17.08;51.76;102299.59;5043720;28;20053;-81
2023/06/13 05:23:10;;;;;;;3.53;0.30;;;;;;;17.33;50.86;102309.63;5037667;28;20604;-82
2023/06/13 05:25:38;;;;;;;1.25;0.40;;;;;;;17.39;50.41;102287.47;5043679;28;20498;-81
2023/06/13 05:28:09;;;;;;;6.43;0.60;;;;;;;17.72;49.59;102313.13;5038284;28;20508;-82
2023/06/13 05:30:38;;;;;;;3.60;0.40;;;;;;;17.81;48.62;102290.91;5041890;28;20037;-82
2023/06/13 05:33:05;;;;;;;1.23;0.32;;;;;;;18.09;48.51;102312.25;5040002;28;20261;-83
2023/06/13 05:35:32;;;;;;;1.45;0.30;;;;;;;18.27;47.25;102310.03;5038748;28;20060;-83
2023/06/13 05:37:59;;;;;;;2.00;0.40;;;;;;;18.41;46.34;102306.13;5033941;28;20049;-82
2023/06/13 05:40:26;;;;;;;4.60;0.63;;;;;;;18.60;45.67;102309.13;5038935;28;20063;-83
2023/06/13 05:42:52;;;;;;;4.35;0.50;;;;;;;18.73;44.61;102295.56;5040295;28;20049;-83
2023/06/13 05:45:21;;;;;;;3.35;0.43;;;;;;;18.90;44.28;102300.41;5041117;28;20045;-82
2023/06/13 05:47:48;;;;;;;0.65;0.38;;;;;;;18.97;43.82;102296.66;5041197;28;20048;-83
2023/06/13 05:50:16;;;;;;;0.57;0.38;;;;;;;19.15;42.97;102295.25;5040739;28;20055;-83
2023/06/13 05:52:43;;;;;;;1.13;0.40;;;;;;;19.24;42.31;102294.97;5038760;28;20056;-83
2023/06/13 05:55:10;;;;;;;4.15;0.40;;;;;;;19.37;40.71;102296.31;5037694;28;20038;-82
2023/06/13 05:57:42;;;;;;;3.13;0.40;;;;;;;19.52;40.81;102293.22;5038008;28;20049;-83
2023/06/13 06:00:12;;;;;;;1.70;0.40;;;;;;;19.58;40.94;102291.25;5042266;28;20056;-82
2023/06/13 06:02:41;;;;;;;3.25;0.40;;;;;;;19.61;40.13;102277.91;5037808;28;20077;-83
2023/06/13 06:05:11;;;;;;;1.35;0.43;;;;;;;19.79;39.70;102298.56;5041842;28;20053;-82
2023/06/13 06:07:38;;;;;;;8.60;0.60;;;;;;;19.87;40.04;102299.19;5044390;28;20057;-83
2023/06/13 06:10:06;;;;;;;1.05;0.38;;;;;;;19.85;39.98;102277.13;5037781;28;20057;-83
2023/06/13 06:12:33;;;;;;;9.18;0.40;;;;;;;20.01;39.44;102293.41;5038732;28;20123;-83
2023/06/13 06:15:00;;;;;;;4.30;0.40;;;;;;;20.06;38.90;102293.25;5038780;28;20067;-83
2023/06/13 06:17:27;;;;;;;2.40;0.40;;;;;;;20.02;38.38;102275.72;5039575;28;20485;-81
2023/06/13 06:19:55;;;;;;;1.23;0.45;;;;;;;20.16;38.13;102292.88;5037897;28;20052;-82
2023/06/13 06:22:22;;;;;;;3.30;0.40;;;;;;;20.20;37.76;102293.63;5039495;28;20463;-82
2023/06/13 06:24:49;;;;;;;3.05;0.40;;;;;;;20.25;37.36;102290.84;5041381;28;20055;-83
2023/06/13 06:27:17;;;;;;;2.17;0.40;;;;;;;20.31;37.74;102296.78;5037820;28;20051;-82
2023/06/13 06:29:44;;;;;;;3.42;0.30;;;;;;;20.36;37.49;102300.16;5038128;28;20044;-82
2023/06/13 06:32:11;;;;;;;6.35;0.50;;;;;;;20.39;37.67;102294.72;5040508;28;20045;-83
2023/06/13 06:34:38;;;;;;;1.20;0.50;;;;;;;20.43;37.45;102296.38;5040763;28;20291;-82
2023/06/13 06:37:07;;;;;;;1.77;0.38;;;;;;;20.48;37.33;102295.31;5039264;28;20056;-82
2023/06/13 06:39:35;;;;;;;0.82;0.30;;;;;;;20.52;36.75;102300.47;5039510;28;20328;-82
2023/06/13 06:42:02;;;;;;;3.33;0.40;;;;;;;20.54;36.81;102293.34;5038399;28;20281;-82
2023/06/13 06:44:29;;;;;;;3.42;0.40;;;;;;;20.56;36.19;102288.00;5039133;28;20057;-82
2023/06/13 06:46:56;;;;;;;0.40;0.30;;;;;;;20.64;35.33;102294.75;5039010;28;20114;-82
2023/06/13 06:49:23;;;;;;;1.23;0.38;;;;;;;20.70;35.32;102301.63;5038035;28;20053;-81
2023/06/13 06:51:50;;;;;;;1.63;0.40;;;;;;;20.59;35.08;102259.53;5038092;28;20485;-81
2023/06/13 06:54:18;;;;;;;9.82;0.35;;;;;;;20.81;34.96;102290.63;5039257;28;20049;-80
2023/06/13 06:56:45;;;;;;;2.08;0.30;;;;;;;20.85;34.57;102287.78;5038925;28;20048;-81
2023/06/13 06:59:12;;;;;;;3.22;0.32;;;;;;;20.92;34.10;102285.78;5037737;28;20049;-81
2023/06/13 07:01:39;;;;;;;3.13;0.50;;;;;;;20.99;34.25;102289.06;5038091;28;20047;-81
2023/06/13 07:04:06;;;;;;;0.90;0.40;;;;;;;21.06;33.87;102279.91;5037593;28;20052;-81
2023/06/13 07:06:33;;;;;;;4.97;0.40;;;;;;;21.17;33.41;102282.16;5040078;28;20038;-81
2023/06/13 07:09:00;;;;;;;1.17;0.30;;;;;;;21.27;33.62;102281.75;5036222;28;20060;-81
2023/06/13 07:11:28;;;;;;;3.40;0.40;;;;;;;21.26;33.57;102256.09;5034534;28;20343;-80
2023/06/13 07:13:55;;;;;;;8.15;0.40;;;;;;;21.41;33.09;102264.41;5038163;28;20061;-81
2023/06/13 07:16:22;;;;;;;2.17;0.40;;;;;;;21.58;32.48;102277.03;5036888;28;20041;-81
2023/06/13 07:18:51;;;;;;;2.60;0.75;;;;;;;21.69;32.18;102262.34;5030069;28;20060;-80
2023/06/13 07:21:18;;;;;;;1.25;0.30;;;;;;;21.71;32.69;102252.50;5033811;28;20045;-82
2023/06/13 07:23:46;;;;;;;2.70;0.32;;;;;;;21.89;31.92;102258.00;5035312;28;20060;-81
2023/06/13 07:26:14;;;;;;;0.82;0.35;;;;;;;22.06;31.64;102265.22;5034553;28;20041;-82
2023/06/13 07:28:42;;;;;;;2.97;0.75;;;;;;;22.20;31.99;102268.22;5029762;28;20458;-81
2023/06/13 07:31:09;;;;;;;5.68;0.40;;;;;;;22.33;31.48;102263.22;5034587;28;20056;-83
2023/06/13 07:33:37;;;;;;;5.40;0.38;;;;;;;22.48;31.48;102269.66;5033889;28;20045;-83
2023/06/13 07:36:04;;;;;;;0.65;0.40;;;;;;;22.59;30.95;102262.91;5010610;28;20118;-83
2023/06/13 07:38:31;;;;;;;1.17;0.40;;;;;;;22.68;29.98;102257.19;5036689;28;20630;-83
2023/06/13 07:40:58;;;;;;;6.07;0.40;;;;;;;22.75;30.19;102244.44;5038799;28;20275;-83
2023/06/13 07:43:25;;;;;;;0.65;0.40;;;;;;;22.87;31.32;102254.50;5029098;28;20059;-82
2023/06/13 07:45:53;;;;;;;4.70;0.47;;;;;;;22.97;30.71;102255.00;5036605;28;20045;-82
2023/06/13 07:48:20;;;;;;;0.60;0.40;;;;;;;23.10;29.89;102253.44;5031329;28;20106;-83
2023/06/13 07:50:47;;;;;;;18.88;0.60;;;;;;;23.23;30.25;102260.88;5031766;28;20136;-83
2023/06/13 07:53:14;;;;;;;2.35;0.30;;;;;;;23.30;29.37;102255.16;5033149;28;20049;-83
2023/06/13 07:55:46;;;;;;;2.95;0.35;;;;;;;23.28;29.42;102229.50;5035500;28;20088;-83
2023/06/13 07:58:13;;;;;;;4.63;0.40;;;;;;;23.52;29.18;102262.97;5033864;28;20048;-83
2023/06/13 08:00:40;;;;;;;3.03;0.30;;;;;;;23.58;29.23;102256.47;5032818;28;20053;-83
2023/06/13 08:03:08;;;;;;;2.20;0.40;;;;;;;23.69;28.29;102251.47;5037832;28;20049;-84
2023/06/13 08:05:35;;;;;;;1.38;0.30;;;;;;;23.73;27.70;102241.53;5037101;28;20052;-83
2023/06/13 08:08:02;;;;;;;2.20;0.40;;;;;;;23.87;27.76;102248.84;5039104;28;20045;-84
2023/06/13 08:10:29;;;;;;;3.55;0.40;;;;;;;23.93;27.30;102252.03;5033898;28;20520;-83
2023/06/13 08:12:56;;;;;;;3.63;0.40;;;;;;;24.00;27.79;102250.81;5036418;28;20060;-83
2023/06/13 08:15:23;;;;;;;6.55;0.30;;;;;;;24.05;27.85;102252.34;5035763;28;20056;-84
2023/06/13 08:17:52;;;;;;;1.55;0.40;;;;;;;24.00;27.30;102240.13;5031700;28;20061;-83
2023/06/13 08:20:20;;;;;;;0.80;0.30;;;;;;;24.14;27.34;102243.91;5034801;28;20107;-83
2023/06/13 08:22:47;;;;;;;4.20;0.88;;;;;;;24.16;27.36;102239.31;5033808;28;20045;-83
2023/06/13 08:25:14;;;;;;;0.75;0.40;;;;;;;24.22;27.20;102249.69;5040581;28;20050;-84
2023/06/13 08:27:41;;;;;;;2.15;0.40;;;;;;;24.26;26.53;102243.25;5040345;28;20037;-83
2023/06/13 08:30:09;;;;;;;3.33;0.73;;;;;;;24.31;26.90;102237.66;5038862;28;20061;-82
2023/06/13 08:32:36;;;;;;;0.80;0.40;;;;;;;24.37;26.90;102232.84;5043642;28;20044;-84
2023/06/13 08:35:03;;;;;;;1.33;0.40;;;;;;;24.47;27.45;102241.25;5035430;28;20042;-83
2023/06/13 08:37:31;;;;;;;3.22;0.98;;;;;;;24.52;27.32;102235.66;5035729;28;20159;-83
2023/06/13 08:39:58;;;;;;;1.50;0.40;;;;;;;24.55;26.71;102230.16;4998519;28;20309;-83
2023/06/13 08:42:26;;;;;;;1.00;0.40;;;;;;;24.50;26.21;102209.03;4998780;28;20050;-83
2023/06/13 08:44:53;;;;;;;2.92;0.30;;;;;;;24.60;26.49;102218.28;4998575;28;20518;-84
2023/06/13 09:18:54;;;;;;;3.03;0.40;;;;;;;25.14;25.92;102212.63;6182176;22;20024;-83
2023/06/13 09:21:21;;;;;;;1.45;0.40;;;;;;;25.15;25.82;102219.69;6241699;22;20026;-84
2023/06/13 09:23:48;;;;;;;2.22;0.40;;;;;;;25.04;25.83;102198.03;6261712;22;20027;-87
2023/06/13 09:26:17;;;;;;;1.08;0.40;;;;;;;24.88;26.17;102161.47;6260324;22;20083;-87
2023/06/13 09:28:47;;;;;;;1.98;0.50;;;;;;;25.22;26.57;102221.09;6255542;22;20025;-86
2023/06/13 09:31:15;;;;;;;0.80;0.38;;;;;;;25.18;26.89;102208.81;6220057;23;20020;-88
2023/06/13 09:33:45;;;;;;;2.08;0.40;;;;;;;25.23;27.29;102214.78;6214368;23;20330;-89
2023/06/13 09:36:14;;;;;;;2.70;0.30;;;;;;;25.15;27.44;102209.00;6213443;23;20471;-85
2023/06/13 09:38:42;;;;;;;4.15;0.50;;;;;;;25.20;27.95;102214.97;6213725;23;20023;-84
2023/06/13 09:41:12;;;;;;;1.27;0.47;;;;;;;25.10;27.33;102197.66;6215663;23;20024;-88
2023/06/13 09:43:40;;;;;;;1.23;0.45;;;;;;;25.19;27.47;102213.25;6224283;23;20028;-84
2023/06/13 09:46:09;;;;;;;3.85;0.40;;;;;;;25.20;27.54;102212.28;6225468;23;20099;-88
2023/06/13 09:48:36;;;;;;;2.67;0.88;;;;;;;25.22;27.90;102205.03;6216049;23;20473;-88
2023/06/13 09:51:06;;;;;;;1.90;0.30;;;;;;;25.23;27.56;102195.19;6218921;23;20131;-90
2023/06/13 09:53:35;;;;;;;1.98;0.45;;;;;;;25.22;27.34;102205.03;6215317;23;20049;-88
2023/06/13 09:56:02;;;;;;;3.05;0.50;;;;;;;25.21;27.50;102207.78;6216314;23;20361;-90
2023/06/13 09:58:30;;;;;;;7.95;0.45;;;;;;;25.03;27.81;102181.13;6218343;23;20024;-84
2023/06/13 10:00:58;;;;;;;4.38;0.40;;;;;;;25.20;28.01;102206.94;6216397;23;20233;-85
2023/06/13 10:03:28;;;;;;;1.95;0.40;;;;;;;25.20;27.78;102206.94;6195218;23;20377;-87
2023/06/13 10:05:56;;;;;;;0.65;0.40;;;;;;;25.10;28.28;102185.19;6155325;23;20025;-85
2023/06/13 10:08:24;;;;;;;0.60;0.40;;;;;;;25.16;27.94;102197.38;6155166;23;20113;-85
2023/06/13 10:10:53;;;;;;;1.00;0.40;;;;;;;25.15;28.06;102200.97;6150959;23;20104;-87
2023/06/13 10:13:26;;;;;;;1.17;0.30;;;;;;;25.16;28.07;102197.38;6151930;23;20480;-89
2023/06/13 10:15:57;;;;;;;3.92;0.50;;;;;;;25.14;27.97;102191.25;6147532;23;20026;-85
2023/06/13 10:18:30;;;;;;;1.17;0.40;;;;;;;25.13;27.87;102190.34;6148175;23;20116;-94
2023/06/13 10:21:01;;;;;;;2.88;0.40;;;;;;;25.10;27.88;102184.31;6152394;23;20024;-91
2023/06/13 10:23:30;;;;;;;1.30;0.40;;;;;;;25.11;27.68;102189.56;6152429;23;20021;-76
2023/06/13 10:26:04;;;;;;;1.15;0.40;;;;;;;25.08;27.85;102181.72;6149957;23;20376;-76
2023/06/13 10:28:55;;;;;;;1.23;0.30;;;;;;;25.09;28.19;102188.78;6150624;23;20037;-74
2023/06/13 10:31:33;;;;;;;0.60;0.40;;;;;;;25.07;27.97;102185.38;6148065;23;20097;-74
2023/06/13 10:34:15;;;;;;;2.17;0.28;;;;;;;25.07;27.86;102181.81;6152119;23;20017;-79
2023/06/13 10:37:05;;;;;;;2.60;0.40;;;;;;;25.06;27.66;102180.09;6152609;23;20025;-76
2023/06/13 10:39:45;;;;;;;4.30;0.50;;;;;;;25.07;27.32;102184.47;6147916;23;20055;-76
2023/06/13 10:42:20;;;;;;;1.50;0.50;;;;;;;25.04;27.71;102182.84;6148832;23;20587;-76
2023/06/13 10:44:55;;;;;;;2.28;0.40;;;;;;;25.04;27.39;102176.63;6146923;23;20021;-75
2023/06/13 10:47:23;;;;;;;0.60;0.30;;;;;;;25.03;27.55;102178.44;6149846;23;20025;-75
2023/06/13 10:49:52;;;;;;;1.80;0.40;;;;;;;25.03;27.40;102177.59;6147058;23;20484;-76
2023/06/13 10:52:20;;;;;;;0.95;0.30;;;;;;;25.02;27.23;102173.22;6147727;23;20021;-76
2023/06/13 10:54:55;;;;;;;4.82;0.40;;;;;;;25.02;27.42;102175.88;6148386;23;20084;-75
2023/06/13 10:57:24;;;;;;;5.10;0.50;;;;;;;25.01;27.05;102174.13;6148290;23;20057;-77
2023/06/13 10:59:51;;;;;;;1.83;0.40;;;;;;;24.95;26.75;102163.81;6145988;23;20027;-75
2023/06/13 11:02:19;;;;;;;0.60;0.30;;;;;;;25.02;26.57;102167.88;6145627;23;20350;-76
2023/06/13 11:04:50;;;;;;;1.40;0.50;;;;;;;25.01;26.12;102163.44;6146489;23;20100;-76
2023/06/13 11:07:28;;;;;;;1.30;0.30;;;;;;;25.00;25.85;102169.75;6145692;23;20085;-76
2023/06/13 11:10:10;;;;;;;6.68;0.60;;;;;;;24.99;26.06;102160.00;6145215;23;20021;-75
2023/06/13 11:12:39;;;;;;;2.47;0.40;;;;;;;24.99;26.14;102162.66;6147505;23;20474;-76
2023/06/13 11:15:20;;;;;;;3.35;0.40;;;;;;;25.00;26.17;102161.72;6143649;23;20051;-76
2023/06/13 11:18:22;;;;;;;1.10;0.50;;;;;;;24.94;26.27;102146.91;6145648;23;20076;-76
2023/06/13 11:20:50;;;;;;;6.53;0.50;;;;;;;24.97;26.32;102156.56;6148116;23;20109;-76
2023/06/13 11:23:18;;;;;;;1.63;0.45;;;;;;;24.92;26.08;102146.97;6144967;23;20033;-75
2023/06/13 11:25:46;;;;;;;2.47;0.35;;;;;;;24.92;25.53;102154.16;6147359;23;20033;-76
2023/06/13 11:28:15;;;;;;;0.60;0.47;;;;;;;24.92;25.48;102155.00;6144688;23;20029;-76
2023/06/13 11:30:44;;;;;;;0.77;0.55;;;;;;;24.91;25.53;102155.97;6146974;23;20021;-75
2023/06/13 11:33:14;;;;;;;1.33;0.50;;;;;;;24.90;25.70;102143.56;6142606;23;20025;-75
2023/06/13 11:35:48;;;;;;;0.80;0.40;;;;;;;24.90;25.63;102148.91;6144192;23;20155;-76
2023/06/13 11:38:22;;;;;;;1.33;0.32;;;;;;;24.92;25.79;102148.78;6147975;23;20031;-81
2023/06/13 11:40:56;;;;;;;3.47;0.40;;;;;;;24.91;25.51;102142.59;6145930;23;20025;-80
2023/06/13 11:43:27;;;;;;;1.95;0.40;;;;;;;24.90;25.24;102145.34;6148792;23;20017;-75
2023/06/13 11:45:59;;;;;;;1.92;0.30;;;;;;;24.83;25.79;102135.97;6146170;23;20347;-77
2023/06/13 11:48:26;;;;;;;3.88;0.40;;;;;;;24.88;24.72;102149.94;6146531;23;20337;-79
2023/06/13 11:50:53;;;;;;;0.98;0.40;;;;;;;24.86;25.15;102144.66;6148390;23;20047;-76
2023/06/13 11:53:20;;;;;;;0.55;0.40;;;;;;;24.85;25.96;102147.44;6146592;23;20017;-81
2023/06/13 11:55:47;;;;;;;1.80;0.50;;;;;;;24.82;25.57;102143.13;6148365;23;20378;-77
2023/06/13 11:58:14;;;;;;;6.53;0.60;;;;;;;24.79;25.58;102129.94;6150066;23;20029;-75
2023/06/13 12:00:53;;;;;;;1.10;0.35;;;;;;;24.79;25.63;102132.63;6144807;23;20424;-76
2023/06/13 12:03:22;;;;;;;3.63;0.40;;;;;;;24.79;25.80;102129.06;6145971;23;20398;-80